createdAt,value
2018-11-10T00:00:01.093Z,18
2018-11-10T00:01:01.123Z,19
2018-11-10T00:02:01.124Z,18
2018-11-10T00:05:01.090Z,16
2018-11-10T00:06:01.096Z,17
2018-11-10T00:07:01.124Z,16
2018-11-10T00:08:01.100Z,17
2018-11-10T00:10:01.093Z,20
2018-11-10T00:11:01.091Z,18
2018-11-10T00:13:01.126Z,20
2018-11-10T00:14:01.095Z,18
2018-11-10T00:15:01.094Z,19
2018-11-10T00:17:01.128Z,18
2018-11-10T00:18:01.093Z,15
2018-11-10T00:19:01.093Z,16
2018-11-10T00:20:01.093Z,15
2018-11-10T00:21:01.094Z,14
2018-11-10T00:22:01.130Z,15
2018-11-10T00:23:01.185Z,17
2018-11-10T00:27:01.128Z,15
2018-11-10T00:28:01.094Z,14
2018-11-10T00:29:01.094Z,13
2018-11-10T00:30:01.096Z,13
2018-11-10T00:31:01.094Z,15
2018-11-10T00:32:01.127Z,16
2018-11-10T00:33:01.095Z,15
2018-11-10T00:38:01.844Z,14
2018-11-10T00:39:01.569Z,13
2018-11-10T00:41:01.097Z,14
2018-11-10T00:42:01.125Z,16
2018-11-10T00:43:01.096Z,17
2018-11-10T00:44:01.093Z,19
2018-11-10T00:45:01.121Z,20
2018-11-10T00:46:01.095Z,17
2018-11-10T00:47:01.126Z,16
2018-11-10T00:48:01.093Z,17
2018-11-10T00:49:01.093Z,15
2018-11-10T00:50:01.097Z,18
2018-11-10T00:51:01.094Z,19
2018-11-10T00:52:01.130Z,18
2018-11-10T00:54:01.099Z,19
2018-11-10T00:55:01.094Z,17
2018-11-10T00:56:01.097Z,16
2018-11-10T01:00:01.100Z,16
2018-11-10T01:02:01.085Z,18
2018-11-10T01:03:01.114Z,19
2018-11-10T01:05:01.084Z,18
2018-11-10T01:06:01.084Z,19
2018-11-10T01:13:01.118Z,18
2018-11-10T01:14:01.087Z,17
2018-11-10T01:15:01.086Z,17
2018-11-10T01:16:01.086Z,18
2018-11-10T01:17:01.093Z,17
2018-11-10T01:18:01.121Z,20
2018-11-10T01:19:01.089Z,22
2018-11-10T01:21:01.084Z,20
2018-11-10T01:22:01.085Z,21
2018-11-10T01:23:01.116Z,19
2018-11-10T01:24:01.084Z,18
2018-11-10T01:25:01.083Z,19
2018-11-10T01:26:01.089Z,20
2018-11-10T01:27:01.086Z,19
2018-11-10T01:28:01.149Z,20
2018-11-10T01:30:01.086Z,19
2018-11-10T01:31:01.087Z,18
2018-11-10T01:32:01.085Z,17
2018-11-10T01:34:01.117Z,18
2018-11-10T01:35:01.087Z,16
2018-11-10T01:37:01.087Z,18
2018-11-10T01:38:01.086Z,17
2018-11-10T01:40:01.086Z,18
2018-11-10T01:44:01.130Z,19
2018-11-10T01:45:01.090Z,18
2018-11-10T01:47:01.092Z,20
2018-11-10T01:48:01.091Z,18
2018-11-10T01:50:01.092Z,19
2018-11-10T01:51:01.096Z,18
2018-11-10T01:52:01.096Z,14
2018-11-10T01:53:01.091Z,16
2018-11-10T01:55:06.095Z,14
2018-11-10T01:56:01.093Z,15
2018-11-10T01:57:01.092Z,18
2018-11-10T01:58:01.099Z,16
2018-11-10T01:59:01.091Z,15
2018-11-10T02:00:01.094Z,16
2018-11-10T02:01:01.092Z,17
2018-11-10T02:03:01.124Z,18
2018-11-10T02:04:01.092Z,19
2018-11-10T02:05:01.097Z,18
2018-11-10T02:08:01.125Z,19
2018-11-10T02:09:01.095Z,18
2018-11-10T02:10:01.096Z,19
2018-11-10T02:12:01.126Z,18
2018-11-10T02:14:01.094Z,16
2018-11-10T02:15:01.098Z,17
2018-11-10T02:16:02.105Z,19
2018-11-10T02:17:01.125Z,18
2018-11-10T02:19:01.093Z,20
2018-11-10T02:20:01.122Z,19
2018-11-10T02:21:01.095Z,16
2018-11-10T02:22:01.128Z,18
2018-11-10T02:24:01.100Z,17
2018-11-10T02:27:01.130Z,16
2018-11-10T02:28:01.097Z,15
2018-11-10T02:29:01.100Z,16
2018-11-10T02:30:01.097Z,17
2018-11-10T02:31:01.102Z,15
2018-11-10T02:32:01.128Z,14
2018-11-10T02:34:01.101Z,16
2018-11-10T02:35:01.099Z,14
2018-11-10T02:36:01.098Z,17
2018-11-10T02:37:01.127Z,18
2018-11-10T02:38:01.273Z,20
2018-11-10T02:39:01.105Z,17
2018-11-10T02:40:01.098Z,19
2018-11-10T02:41:01.104Z,17
2018-11-10T02:43:01.135Z,16
2018-11-10T02:45:01.098Z,14
2018-11-10T02:46:01.101Z,13
2018-11-10T02:49:01.136Z,14
2018-11-10T02:50:01.101Z,19
2018-11-10T02:52:01.145Z,20
2018-11-10T02:54:01.099Z,19
2018-11-10T02:55:01.100Z,17
2018-11-10T02:58:01.116Z,16
2018-11-10T02:59:01.086Z,17
2018-11-10T03:00:01.085Z,17
2018-11-10T03:02:01.087Z,18
2018-11-10T03:03:01.117Z,20
2018-11-10T03:04:01.118Z,21
2018-11-10T03:05:01.089Z,23
2018-11-10T03:06:01.085Z,24
2018-11-10T03:08:01.088Z,22
2018-11-10T03:09:01.127Z,19
2018-11-10T03:10:01.097Z,18
2018-11-10T03:11:01.091Z,17
2018-11-10T03:12:01.091Z,15
2018-11-10T03:13:01.090Z,14
2018-11-10T03:14:01.088Z,16
2018-11-10T03:15:01.092Z,15
2018-11-10T03:18:01.094Z,17
2018-11-10T03:19:01.090Z,15
2018-11-10T03:22:01.092Z,18
2018-11-10T03:23:01.090Z,16
2018-11-10T03:24:01.093Z,17
2018-11-10T03:25:01.088Z,18
2018-11-10T03:26:01.898Z,17
2018-11-10T03:27:01.090Z,16
2018-11-10T03:28:01.094Z,15
2018-11-10T03:30:01.156Z,14
2018-11-10T03:31:01.124Z,15
2018-11-10T03:32:01.092Z,14
2018-11-10T03:33:01.092Z,15
2018-11-10T03:34:01.188Z,16
2018-11-10T03:35:01.092Z,17
2018-11-10T03:36:01.125Z,18
2018-11-10T03:37:01.092Z,19
2018-11-10T03:39:01.095Z,20
2018-11-10T03:40:01.092Z,19
2018-11-10T03:41:01.128Z,18
2018-11-10T03:42:01.092Z,15
2018-11-10T03:43:01.093Z,17
2018-11-10T03:44:01.092Z,15
2018-11-10T03:45:01.099Z,15
2018-11-10T03:46:01.130Z,14
2018-11-10T03:47:01.093Z,15
2018-11-10T03:48:02.118Z,14
2018-11-10T03:50:01.094Z,15
2018-11-10T03:51:01.124Z,16
2018-11-10T03:52:01.097Z,17
2018-11-10T03:53:01.098Z,18
2018-11-10T03:54:01.097Z,20
2018-11-10T03:55:01.096Z,19
2018-11-10T03:56:01.131Z,18
2018-11-10T03:57:01.096Z,16
2018-11-10T04:00:01.101Z,15
2018-11-10T04:01:01.133Z,17
2018-11-10T04:03:01.099Z,16
2018-11-10T04:04:01.099Z,15
2018-11-10T04:05:01.098Z,17
2018-11-10T04:07:01.133Z,16
2018-11-10T04:11:01.129Z,17
2018-11-10T04:12:01.099Z,18
2018-11-10T04:13:01.101Z,17
2018-11-10T04:15:01.100Z,16
2018-11-10T04:16:01.132Z,14
2018-11-10T04:17:01.133Z,15
2018-11-10T04:18:01.105Z,16
2018-11-10T04:19:01.102Z,17
2018-11-10T04:20:01.102Z,18
2018-11-10T04:21:01.134Z,20
2018-11-10T04:23:01.101Z,21
2018-11-10T04:25:01.085Z,20
2018-11-10T04:26:01.118Z,19
2018-11-10T04:27:01.085Z,17
2018-11-10T04:28:01.085Z,16
2018-11-10T04:29:01.088Z,14
2018-11-10T04:30:01.614Z,16
2018-11-10T04:31:01.117Z,15
2018-11-10T04:32:01.095Z,16
2018-11-10T04:33:01.087Z,18
2018-11-10T04:34:01.090Z,20
2018-11-10T04:35:01.087Z,21
2018-11-10T04:36:01.127Z,22
2018-11-10T04:38:01.089Z,20
2018-11-10T04:39:01.089Z,18
2018-11-10T04:41:01.090Z,17
2018-11-10T04:42:01.119Z,16
2018-11-10T04:43:01.092Z,17
2018-11-10T04:45:01.090Z,18
2018-11-10T04:47:01.121Z,19
2018-11-10T04:49:01.097Z,18
2018-11-10T04:50:01.091Z,17
2018-11-10T04:53:01.126Z,16
2018-11-10T05:00:01.096Z,15
2018-11-10T05:02:01.125Z,16
2018-11-10T05:03:01.096Z,18
2018-11-10T05:04:01.095Z,20
2018-11-10T05:05:01.094Z,21
2018-11-10T05:07:01.129Z,20
2018-11-10T05:08:01.095Z,19
2018-11-10T05:09:01.096Z,16
2018-11-10T05:12:01.143Z,15
2018-11-10T05:14:01.097Z,19
2018-11-10T05:15:01.096Z,17
2018-11-10T05:16:01.096Z,18
2018-11-10T05:21:01.098Z,16
2018-11-10T05:22:01.133Z,18
2018-11-10T05:24:01.098Z,15
2018-11-10T05:25:01.098Z,16
2018-11-10T05:26:01.097Z,17
2018-11-10T05:28:01.133Z,16
2018-11-10T05:29:01.098Z,17
2018-11-10T05:30:01.134Z,16
2018-11-10T05:35:01.130Z,17
2018-11-10T05:36:02.274Z,18
2018-11-10T05:37:01.098Z,17
2018-11-10T05:40:06.100Z,18
2018-11-10T05:41:01.098Z,17
2018-11-10T05:43:01.098Z,18
2018-11-10T05:45:01.100Z,18
2018-11-10T05:46:01.104Z,19
2018-11-10T05:48:01.083Z,20
2018-11-10T05:49:01.083Z,19
2018-11-10T05:51:01.087Z,20
2018-11-10T05:53:01.087Z,19
2018-11-10T05:54:01.082Z,18
2018-11-10T05:56:01.083Z,17
2018-11-10T05:58:01.085Z,18
2018-11-10T05:59:01.084Z,17
2018-11-10T06:00:01.085Z,18
2018-11-10T06:01:01.082Z,19
2018-11-10T06:02:01.122Z,18
2018-11-10T06:03:01.155Z,19
2018-11-10T06:04:01.086Z,21
2018-11-10T06:05:01.087Z,20
2018-11-10T06:06:01.092Z,19
2018-11-10T06:08:01.085Z,17
2018-11-10T06:09:01.110Z,16
2018-11-10T06:12:01.086Z,15
2018-11-10T06:13:01.089Z,16
2018-11-10T06:15:01.090Z,16
2018-11-10T06:16:01.136Z,17
2018-11-10T06:17:01.086Z,18
2018-11-10T06:18:01.987Z,17
2018-11-10T06:19:01.106Z,16
2018-11-10T06:21:01.089Z,15
2018-11-10T06:22:01.095Z,16
2018-11-10T06:25:01.087Z,17
2018-11-10T06:26:01.137Z,18
2018-11-10T06:27:01.090Z,17
2018-11-10T06:28:01.089Z,16
2018-11-10T06:29:01.089Z,17
2018-11-10T06:30:01.088Z,18
2018-11-10T06:32:01.089Z,17
2018-11-10T06:33:01.090Z,18
2018-11-10T06:34:01.090Z,19
2018-11-10T06:35:01.094Z,18
2018-11-10T06:38:01.120Z,17
2018-11-10T06:39:01.130Z,18
2018-11-10T06:40:01.093Z,17
2018-11-10T06:42:01.099Z,18
2018-11-10T06:43:01.097Z,19
2018-11-10T06:44:01.132Z,17
2018-11-10T06:45:01.096Z,18
2018-11-10T06:46:01.102Z,17
2018-11-10T06:47:01.120Z,18
2018-11-10T06:48:01.096Z,17
2018-11-10T06:50:01.098Z,18
2018-11-10T06:51:01.101Z,20
2018-11-10T06:52:01.097Z,19
2018-11-10T06:53:01.172Z,18
2018-11-10T06:54:01.129Z,16
2018-11-10T06:55:01.099Z,15
2018-11-10T06:56:01.101Z,13
2018-11-10T06:57:01.098Z,14
2018-11-10T06:58:01.140Z,17
2018-11-10T06:59:01.098Z,19
2018-11-10T07:00:01.103Z,18
2018-11-10T07:02:01.105Z,17
2018-11-10T07:04:01.090Z,16
2018-11-10T07:05:01.084Z,17
2018-11-10T07:06:01.990Z,18
2018-11-10T07:07:01.591Z,20
2018-11-10T07:08:01.089Z,19
2018-11-10T07:10:01.085Z,18
2018-11-10T07:11:01.085Z,17
2018-11-10T07:12:01.084Z,15
2018-11-10T07:13:01.086Z,17
2018-11-10T07:14:01.089Z,16
2018-11-10T07:15:01.086Z,15
2018-11-10T07:17:01.085Z,16
2018-11-10T07:19:01.086Z,18
2018-11-10T07:20:01.087Z,19
2018-11-10T07:21:01.091Z,21
2018-11-10T07:22:01.088Z,20
2018-11-10T07:23:01.091Z,21
2018-11-10T07:24:01.089Z,19
2018-11-10T07:26:01.091Z,18
2018-11-10T07:27:01.089Z,17
2018-11-10T07:28:01.091Z,15
2018-11-10T07:30:01.093Z,14
2018-11-10T07:32:01.156Z,15
2018-11-10T07:33:01.095Z,16
2018-11-10T07:34:01.092Z,19
2018-11-10T07:37:01.093Z,21
2018-11-10T07:38:01.141Z,19
2018-11-10T07:40:01.092Z,21
2018-11-10T07:41:01.093Z,20
2018-11-10T07:42:01.094Z,19
2018-11-10T07:44:01.110Z,18
2018-11-10T07:45:01.106Z,17
2018-11-10T07:46:01.093Z,18
2018-11-10T07:47:01.095Z,19
2018-11-10T07:48:01.135Z,20
2018-11-10T07:49:01.988Z,19
2018-11-10T07:50:01.092Z,18
2018-11-10T07:52:01.094Z,17
2018-11-10T07:54:01.092Z,15
2018-11-10T07:55:01.091Z,16
2018-11-10T07:58:01.095Z,17
2018-11-10T07:59:01.125Z,18
2018-11-10T08:00:01.093Z,17
2018-11-10T08:10:01.087Z,18
2018-11-10T08:14:01.128Z,19
2018-11-10T08:15:01.087Z,19
2018-11-10T08:17:01.088Z,21
2018-11-10T08:18:01.087Z,19
2018-11-10T08:19:01.132Z,18
2018-11-10T08:21:01.086Z,19
2018-11-10T08:22:01.111Z,20
2018-11-10T08:23:01.092Z,21
2018-11-10T08:24:02.109Z,20
2018-11-10T08:25:01.131Z,21
2018-11-10T08:26:01.085Z,20
2018-11-10T08:27:01.088Z,18
2018-11-10T08:29:01.093Z,19
2018-11-10T08:30:02.951Z,18
2018-11-10T08:32:01.088Z,19
2018-11-10T08:33:01.089Z,20
2018-11-10T08:34:01.087Z,19
2018-11-10T08:36:01.150Z,18
2018-11-10T08:37:01.088Z,17
2018-11-10T08:38:01.090Z,15
2018-11-10T08:39:01.090Z,17
2018-11-10T08:40:01.086Z,18
2018-11-10T08:41:01.085Z,19
2018-11-10T08:42:01.087Z,21
2018-11-10T08:44:01.088Z,18
2018-11-10T08:45:01.087Z,17
2018-11-10T08:47:01.090Z,16
2018-11-10T08:48:01.091Z,17
2018-11-10T08:49:01.117Z,21
2018-11-10T08:50:01.090Z,20
2018-11-10T08:51:01.094Z,21
2018-11-10T08:52:01.091Z,20
2018-11-10T08:53:01.100Z,21
2018-11-10T08:54:01.094Z,17
2018-11-10T08:55:01.091Z,18
2018-11-10T08:56:01.093Z,16
2018-11-10T08:57:01.096Z,18
2018-11-10T08:58:01.091Z,17
2018-11-10T09:00:01.094Z,18
2018-11-10T09:02:01.129Z,17
2018-11-10T09:04:01.094Z,18
2018-11-10T09:05:01.093Z,17
2018-11-10T09:07:01.095Z,19
2018-11-10T09:09:01.102Z,18
2018-11-10T09:12:01.099Z,16
2018-11-10T09:13:01.096Z,15
2018-11-10T09:14:01.099Z,16
2018-11-10T09:15:01.117Z,16
2018-11-10T09:16:01.140Z,17
2018-11-10T09:17:01.099Z,19
2018-11-10T09:18:01.097Z,21
2018-11-10T09:19:01.098Z,20
2018-11-10T09:20:01.099Z,21
2018-11-10T09:21:01.223Z,19
2018-11-10T09:22:01.098Z,18
2018-11-10T09:23:01.096Z,16
2018-11-10T09:25:01.099Z,15
2018-11-10T09:28:01.114Z,17
2018-11-10T09:29:01.098Z,18
2018-11-10T09:30:01.099Z,17
2018-11-10T09:31:01.228Z,16
2018-11-10T09:34:01.102Z,15
2018-11-10T09:35:01.102Z,18
2018-11-10T09:39:01.086Z,17
2018-11-10T09:41:01.085Z,16
2018-11-10T09:42:01.172Z,17
2018-11-10T09:44:01.083Z,18
2018-11-10T09:45:01.085Z,18
2018-11-10T09:47:01.088Z,16
2018-11-10T09:52:01.088Z,17
2018-11-10T09:54:01.085Z,18
2018-11-10T09:55:01.086Z,16
2018-11-10T09:57:01.086Z,17
2018-11-10T09:58:01.084Z,16
2018-11-10T09:59:01.088Z,15
2018-11-10T10:00:01.086Z,16
2018-11-10T10:01:01.144Z,17
2018-11-10T10:02:01.562Z,16
2018-11-10T10:03:01.131Z,17
2018-11-10T10:05:01.090Z,16
2018-11-10T10:08:01.090Z,17
2018-11-10T10:11:01.094Z,15
2018-11-10T10:13:01.091Z,14
2018-11-10T10:15:01.093Z,15
2018-11-10T10:16:01.185Z,16
2018-11-10T10:17:01.116Z,17
2018-11-10T10:19:01.095Z,16
2018-11-10T10:20:01.093Z,15
2018-11-10T10:21:01.092Z,16
2018-11-10T10:22:01.223Z,17
2018-11-10T10:23:01.109Z,18
2018-11-10T10:25:01.091Z,20
2018-11-10T10:27:01.091Z,18
2018-11-10T10:28:01.312Z,17
2018-11-10T10:29:01.249Z,20
2018-11-10T10:30:01.095Z,21
2018-11-10T10:31:01.090Z,20
2018-11-10T10:33:01.092Z,21
2018-11-10T10:34:01.200Z,17
2018-11-10T10:35:01.124Z,16
2018-11-10T10:38:01.093Z,17
2018-11-10T10:39:01.133Z,18
2018-11-10T10:40:01.096Z,19
2018-11-10T10:41:01.101Z,20
2018-11-10T10:42:01.091Z,19
2018-11-10T10:43:01.143Z,17
2018-11-10T10:45:01.094Z,15
2018-11-10T10:50:01.098Z,17
2018-11-10T10:51:01.094Z,18
2018-11-10T10:52:01.095Z,17
2018-11-10T10:55:01.101Z,16
2018-11-10T10:57:01.157Z,19
2018-11-10T10:58:01.095Z,20
2018-11-10T11:00:01.096Z,22
2018-11-10T11:01:01.097Z,21
2018-11-10T11:02:01.096Z,20
2018-11-10T11:03:01.213Z,21
2018-11-10T11:04:01.133Z,20
2018-11-10T11:05:01.094Z,18
2018-11-10T11:06:01.094Z,17
2018-11-10T11:09:01.223Z,18
2018-11-10T11:11:01.096Z,17
2018-11-10T11:12:01.095Z,18
2018-11-10T11:15:01.156Z,18
2018-11-10T11:16:01.094Z,17
2018-11-10T11:17:02.845Z,16
2018-11-10T11:18:01.097Z,15
2018-11-10T11:20:01.096Z,17
2018-11-10T11:21:01.097Z,19
2018-11-10T11:22:01.218Z,20
2018-11-10T11:23:01.098Z,19
2018-11-10T11:25:01.100Z,18
2018-11-10T11:26:01.098Z,17
2018-11-10T11:28:01.081Z,16
2018-11-10T11:30:01.084Z,14
2018-11-10T11:31:01.166Z,15
2018-11-10T11:32:01.082Z,16
2018-11-10T11:33:01.085Z,15
2018-11-10T11:34:01.083Z,17
2018-11-10T11:39:01.085Z,16
2018-11-10T11:40:01.086Z,17
2018-11-10T11:41:01.129Z,15
2018-11-10T11:42:01.084Z,14
2018-11-10T11:44:01.087Z,13
2018-11-10T11:45:01.086Z,13
2018-11-10T11:46:01.083Z,14
2018-11-10T11:47:01.083Z,15
2018-11-10T11:48:01.082Z,16
2018-11-10T11:49:01.087Z,18
2018-11-10T11:51:01.085Z,19
2018-11-10T11:52:01.084Z,21
2018-11-10T11:53:01.083Z,20
2018-11-10T11:54:01.085Z,19
2018-11-10T11:57:01.085Z,18
2018-11-10T11:59:01.178Z,19
2018-11-10T12:00:01.088Z,19
2018-11-10T12:01:01.084Z,17
2018-11-10T12:02:01.200Z,16
2018-11-10T12:03:01.088Z,17
2018-11-10T12:06:01.094Z,18
2018-11-10T12:07:01.117Z,19
2018-11-10T12:09:01.086Z,17
2018-11-10T12:10:01.084Z,19
2018-11-10T12:11:01.092Z,17
2018-11-10T12:13:01.113Z,18
2018-11-10T12:14:06.098Z,19
2018-11-10T12:15:01.095Z,18
2018-11-10T12:19:01.089Z,17
2018-11-10T12:21:01.123Z,18
2018-11-10T12:22:01.146Z,19
2018-11-10T12:24:01.090Z,17
2018-11-10T12:25:01.090Z,19
2018-11-10T12:26:01.089Z,18
2018-11-10T12:27:01.089Z,15
2018-11-10T12:28:01.089Z,16
2018-11-10T12:30:01.089Z,14
2018-11-10T12:31:01.091Z,16
2018-11-10T12:32:01.245Z,17
2018-11-10T12:33:01.094Z,16
2018-11-10T12:35:01.090Z,18
2018-11-10T12:36:01.090Z,17
2018-11-10T12:38:01.093Z,15
2018-11-10T12:40:01.100Z,13
2018-11-10T12:41:01.092Z,14
2018-11-10T12:42:01.093Z,12
2018-11-10T12:43:01.093Z,16
2018-11-10T12:45:01.103Z,16
2018-11-10T12:46:01.090Z,17
2018-11-10T12:47:01.105Z,18
2018-11-10T12:48:01.094Z,17
2018-11-10T12:50:01.093Z,18
2018-11-10T12:52:01.092Z,17
2018-11-10T12:54:01.125Z,18
2018-11-10T12:55:01.168Z,17
2018-11-10T12:57:01.094Z,18
2018-11-10T12:58:01.121Z,17
2018-11-10T12:59:01.125Z,19
2018-11-10T13:00:01.095Z,20
2018-11-10T13:01:01.097Z,21
2018-11-10T13:04:01.131Z,20
2018-11-10T13:05:01.099Z,22
2018-11-10T13:06:01.097Z,21
2018-11-10T13:07:01.136Z,20
2018-11-10T13:08:01.137Z,21
2018-11-10T13:10:01.094Z,19
2018-11-10T13:11:01.267Z,18
2018-11-10T13:13:01.099Z,19
2018-11-10T13:15:01.108Z,19
2018-11-10T13:16:01.103Z,20
2018-11-10T13:17:01.097Z,19
2018-11-10T13:18:01.100Z,17
2018-11-10T13:19:01.132Z,16
2018-11-10T13:23:01.086Z,18
2018-11-10T13:24:01.119Z,19
2018-11-10T13:25:01.086Z,18
2018-11-10T13:26:01.089Z,19
2018-11-10T13:27:01.091Z,18
2018-11-10T13:28:01.092Z,17
2018-11-10T13:29:01.123Z,18
2018-11-10T13:30:01.090Z,19
2018-11-10T13:31:01.222Z,18
2018-11-10T13:32:01.217Z,19
2018-11-10T13:34:01.118Z,18
2018-11-10T13:37:01.091Z,16
2018-11-10T13:39:01.130Z,15
2018-11-10T13:41:01.088Z,18
2018-11-10T13:42:01.092Z,19
2018-11-10T13:44:01.282Z,20
2018-11-10T13:45:01.090Z,19
2018-11-10T13:47:01.091Z,20
2018-11-10T13:48:01.092Z,19
2018-11-10T13:49:01.122Z,18
2018-11-10T13:50:01.089Z,20
2018-11-10T13:51:01.362Z,18
2018-11-10T13:52:01.305Z,17
2018-11-10T13:55:01.091Z,15
2018-11-10T13:57:01.099Z,16
2018-11-10T13:58:01.091Z,15
2018-11-10T13:59:01.092Z,16
2018-11-10T14:00:01.097Z,18
2018-11-10T14:02:01.090Z,17
2018-11-10T14:05:01.090Z,16
2018-11-10T14:06:01.092Z,17
2018-11-10T14:09:01.089Z,18
2018-11-10T14:10:01.101Z,17
2018-11-10T14:11:01.090Z,15
2018-11-10T14:13:01.092Z,18
2018-11-10T14:15:01.091Z,19
2018-11-10T14:16:01.095Z,20
2018-11-10T14:18:01.092Z,18
2018-11-10T14:19:01.094Z,19
2018-11-10T14:20:01.093Z,18
2018-11-10T14:21:01.132Z,19
2018-11-10T14:24:01.098Z,17
2018-11-10T14:26:01.158Z,15
2018-11-10T14:28:01.094Z,14
2018-11-10T14:29:01.091Z,15
2018-11-10T14:30:01.093Z,16
2018-11-10T14:32:01.095Z,17
2018-11-10T14:33:01.093Z,18
2018-11-10T14:34:01.091Z,17
2018-11-10T14:35:01.093Z,16
2018-11-10T14:36:01.131Z,17
2018-11-10T14:37:01.093Z,14
2018-11-10T14:38:01.160Z,15
2018-11-10T14:39:01.098Z,16
2018-11-10T14:40:01.093Z,14
2018-11-10T14:41:01.123Z,15
2018-11-10T14:42:01.185Z,17
2018-11-10T14:43:01.097Z,19
2018-11-10T14:44:06.183Z,17
2018-11-10T14:45:01.097Z,18
2018-11-10T14:48:01.098Z,17
2018-11-10T14:49:01.100Z,16
2018-11-10T14:50:01.096Z,17
2018-11-10T14:51:01.129Z,16
2018-11-10T14:52:01.097Z,17
2018-11-10T14:55:01.081Z,19
2018-11-10T14:58:01.082Z,17
2018-11-10T14:59:01.115Z,15
2018-11-10T15:00:01.083Z,14
2018-11-10T15:02:01.082Z,15
2018-11-10T15:04:01.115Z,17
2018-11-10T15:07:01.084Z,18
2018-11-10T15:08:01.615Z,19
2018-11-10T15:09:01.117Z,17
2018-11-10T15:10:01.088Z,19
2018-11-10T15:11:01.085Z,20
2018-11-10T15:12:01.245Z,19
2018-11-10T15:13:01.085Z,18
2018-11-10T15:14:01.114Z,19
2018-11-10T15:15:01.088Z,18
2018-11-10T15:16:01.086Z,17
2018-11-10T15:18:01.128Z,15
2018-11-10T15:19:01.125Z,16
2018-11-10T15:21:01.083Z,17
2018-11-10T15:22:01.085Z,16
2018-11-10T15:23:01.085Z,17
2018-11-10T15:27:01.085Z,18
2018-11-10T15:28:01.088Z,19
2018-11-10T15:29:01.090Z,18
2018-11-10T15:30:01.096Z,19
2018-11-10T15:31:01.087Z,18
2018-11-10T15:32:01.089Z,16
2018-11-10T15:33:01.089Z,15
2018-11-10T15:34:01.088Z,16
2018-11-10T15:36:01.097Z,15
2018-11-10T15:37:01.090Z,16
2018-11-10T15:39:01.090Z,15
2018-11-10T15:40:01.092Z,14
2018-11-10T15:41:01.092Z,15
2018-11-10T15:43:01.090Z,14
2018-11-10T15:45:01.091Z,15
2018-11-10T15:46:02.066Z,16
2018-11-10T15:47:01.095Z,17
2018-11-10T15:48:01.092Z,18
2018-11-10T15:50:01.097Z,17
2018-11-10T15:51:01.092Z,16
2018-11-10T15:52:01.093Z,15
2018-11-10T15:53:01.096Z,12
2018-11-10T15:54:01.128Z,13
2018-11-10T15:56:01.128Z,12
2018-11-10T15:58:01.100Z,14
2018-11-10T16:00:01.159Z,14
2018-11-10T16:01:01.125Z,15
2018-11-10T16:02:01.095Z,17
2018-11-10T16:04:01.107Z,18
2018-11-10T16:06:01.150Z,17
2018-11-10T16:08:01.099Z,18
2018-11-10T16:09:01.155Z,16
2018-11-10T16:10:01.164Z,15
2018-11-10T16:12:01.093Z,16
2018-11-10T16:14:01.099Z,18
2018-11-10T16:15:01.097Z,17
2018-11-10T16:16:01.227Z,18
2018-11-10T16:18:01.104Z,17
2018-11-10T16:19:01.095Z,16
2018-11-10T16:21:01.228Z,15
2018-11-10T16:23:01.095Z,16
2018-11-10T16:24:01.095Z,17
2018-11-10T16:25:01.097Z,18
2018-11-10T16:27:01.096Z,17
2018-11-10T16:28:01.121Z,14
2018-11-10T16:30:01.109Z,13
2018-11-10T16:31:06.126Z,12
2018-11-10T16:32:01.101Z,13
2018-11-10T16:33:01.128Z,16
2018-11-10T16:34:01.099Z,15
2018-11-10T16:35:01.099Z,17
2018-11-10T16:36:01.102Z,18
2018-11-10T16:39:01.084Z,17
2018-11-10T16:40:01.092Z,16
2018-11-10T16:41:02.071Z,17
2018-11-10T16:42:01.083Z,18
2018-11-10T16:43:01.115Z,19
2018-11-10T16:44:01.087Z,18
2018-11-10T16:45:01.139Z,18
2018-11-10T16:47:01.086Z,17
2018-11-10T16:49:01.171Z,18
2018-11-10T16:50:01.086Z,19
2018-11-10T16:51:01.085Z,18
2018-11-10T16:52:01.091Z,17
2018-11-10T16:53:01.118Z,15
2018-11-10T16:54:01.123Z,16
2018-11-10T16:55:01.174Z,17
2018-11-10T16:56:01.089Z,18
2018-11-10T16:58:01.761Z,19
2018-11-10T16:59:01.183Z,18
2018-11-10T17:00:01.084Z,16
2018-11-10T17:01:01.089Z,17
2018-11-10T17:03:01.087Z,16
2018-11-10T17:05:01.096Z,17
2018-11-10T17:06:01.086Z,16
2018-11-10T17:08:01.090Z,18
2018-11-10T17:09:01.332Z,17
2018-11-10T17:10:01.085Z,18
2018-11-10T17:12:01.089Z,17
2018-11-10T17:13:01.130Z,18
2018-11-10T17:14:01.087Z,20
2018-11-10T17:15:01.089Z,18
2018-11-10T17:17:01.087Z,19
2018-11-10T17:18:01.118Z,16
2018-11-10T17:19:01.089Z,14
2018-11-10T17:21:01.096Z,15
2018-11-10T17:22:01.348Z,16
2018-11-10T17:23:01.441Z,19
2018-11-10T17:24:01.086Z,20
2018-11-10T17:25:01.092Z,21
2018-11-10T17:26:01.089Z,19
2018-11-10T17:27:01.108Z,18
2018-11-10T17:28:01.142Z,16
2018-11-10T17:30:01.105Z,15
2018-11-10T17:31:01.090Z,16
2018-11-10T17:32:01.089Z,17
2018-11-10T17:34:01.124Z,18
2018-11-10T17:35:01.151Z,19
2018-11-10T17:36:01.091Z,20
2018-11-10T17:37:01.089Z,19
2018-11-10T17:39:01.215Z,17
2018-11-10T17:40:02.221Z,18
2018-11-10T17:41:01.093Z,16
2018-11-10T17:42:01.167Z,15
2018-11-10T17:43:01.121Z,16
2018-11-10T17:44:01.088Z,17
2018-11-10T17:45:01.096Z,16
2018-11-10T17:47:01.090Z,18
2018-11-10T17:51:01.090Z,21
2018-11-10T17:52:01.160Z,20
2018-11-10T17:53:01.997Z,18
2018-11-10T17:54:01.090Z,19
2018-11-10T17:56:01.090Z,17
2018-11-10T17:58:01.090Z,16
2018-11-10T17:59:01.122Z,17
2018-11-10T18:00:01.090Z,16
2018-11-10T18:02:01.162Z,18
2018-11-10T18:03:01.095Z,21
2018-11-10T18:05:01.096Z,19
2018-11-10T18:06:01.126Z,17
2018-11-10T18:07:01.096Z,15
2018-11-10T18:08:01.090Z,14
2018-11-10T18:09:01.092Z,16
2018-11-10T18:10:01.095Z,17
2018-11-10T18:11:01.132Z,18
2018-11-10T18:12:01.094Z,19
2018-11-10T18:14:01.114Z,18
2018-11-10T18:15:01.093Z,19
2018-11-10T18:16:01.132Z,20
2018-11-10T18:18:01.095Z,21
2018-11-10T18:19:01.228Z,20
2018-11-10T18:20:01.093Z,21
2018-11-10T18:21:01.134Z,19
2018-11-10T18:22:01.095Z,20
2018-11-10T18:23:01.093Z,19
2018-11-10T18:25:01.096Z,17
2018-11-10T18:26:01.135Z,18
2018-11-10T18:27:01.094Z,16
2018-11-10T18:29:01.095Z,17
2018-11-10T18:30:01.095Z,16
2018-11-10T18:31:01.136Z,15
2018-11-10T18:32:01.096Z,16
2018-11-10T18:33:01.096Z,15
2018-11-10T18:34:01.099Z,16
2018-11-10T18:35:01.101Z,17
2018-11-10T18:36:01.610Z,18
2018-11-10T18:37:01.096Z,16
2018-11-10T18:38:01.100Z,17
2018-11-10T18:39:01.103Z,16
2018-11-10T18:40:01.143Z,17
2018-11-10T18:41:01.128Z,16
2018-11-10T18:42:01.099Z,17
2018-11-10T18:44:01.231Z,19
2018-11-10T18:45:01.107Z,18
2018-11-10T18:46:01.098Z,19
2018-11-10T18:47:01.099Z,20
2018-11-10T18:49:01.246Z,18
2018-11-10T18:50:01.083Z,17
2018-11-10T18:51:01.082Z,16
2018-11-10T18:52:01.149Z,15
2018-11-10T18:53:01.116Z,14
2018-11-10T18:54:01.083Z,15
2018-11-10T18:55:01.081Z,16
2018-11-10T18:56:01.081Z,15
2018-11-10T18:57:01.158Z,16
2018-11-10T18:59:01.113Z,18
2018-11-10T19:00:01.083Z,18
2018-11-10T19:02:01.082Z,17
2018-11-10T19:04:01.121Z,16
2018-11-10T19:05:01.091Z,17
2018-11-10T19:06:01.110Z,18
2018-11-10T19:09:01.121Z,19
2018-11-10T19:10:01.084Z,18
2018-11-10T19:11:01.085Z,17
2018-11-10T19:15:01.088Z,17
2018-11-10T19:16:01.091Z,18
2018-11-10T19:18:01.093Z,19
2018-11-10T19:22:01.086Z,20
2018-11-10T19:23:01.171Z,19
2018-11-10T19:26:01.089Z,20
2018-11-10T19:27:01.090Z,19
2018-11-10T19:30:01.091Z,19
2018-11-10T19:31:01.089Z,17
2018-11-10T19:32:01.107Z,16
2018-11-10T19:36:01.090Z,17
2018-11-10T19:39:01.089Z,16
2018-11-10T19:40:01.086Z,18
2018-11-10T19:41:01.088Z,17
2018-11-10T19:42:01.090Z,18
2018-11-10T19:43:01.088Z,17
2018-11-10T19:45:01.090Z,15
2018-11-10T19:46:01.087Z,14
2018-11-10T19:47:01.095Z,13
2018-11-10T19:48:01.091Z,14
2018-11-10T19:49:01.087Z,15
2018-11-10T19:50:01.119Z,17
2018-11-10T19:52:03.110Z,18
2018-11-10T19:54:01.092Z,17
2018-11-10T19:55:01.097Z,16
2018-11-10T19:56:01.089Z,17
2018-11-10T19:57:01.088Z,19
2018-11-10T19:58:01.090Z,20
2018-11-10T19:59:01.090Z,21
2018-11-10T20:00:01.091Z,19
2018-11-10T20:02:01.115Z,15
2018-11-10T20:05:01.087Z,17
2018-11-10T20:06:01.128Z,16
2018-11-10T20:07:01.088Z,17
2018-11-10T20:09:01.088Z,18
2018-11-10T20:11:01.116Z,19
2018-11-10T20:12:01.129Z,20
2018-11-10T20:14:01.194Z,19
2018-11-10T20:15:01.089Z,17
2018-11-10T20:19:01.118Z,16